createdAt,value
2022-07-29T00:01:46.806Z,20.26
2022-07-29T00:04:16.434Z,20.19
2022-07-29T00:06:46.142Z,20.16
2022-07-29T00:09:15.644Z,20.13
2022-07-29T00:11:45.043Z,20.18
2022-07-29T00:14:14.843Z,20.09
2022-07-29T00:16:46.871Z,20.08
2022-07-29T00:19:16.327Z,20.09
2022-07-29T00:21:45.818Z,20.07
2022-07-29T00:24:15.731Z,20.06
2022-07-29T00:26:45.607Z,20.10
2022-07-29T00:29:33.563Z,20.11
2022-07-29T00:32:03.720Z,20.05
2022-07-29T00:34:46.157Z,20.02
2022-07-29T00:37:15.566Z,19.95
2022-07-29T00:39:45.635Z,19.89
2022-07-29T00:42:15.012Z,19.93
2022-07-29T00:44:46.311Z,19.99
2022-07-29T00:47:15.878Z,19.96
2022-07-29T00:49:46.151Z,19.99
2022-07-29T00:52:16.974Z,19.98
2022-07-29T00:54:46.878Z,19.89
2022-07-29T00:57:16.516Z,19.92
2022-07-29T00:59:46.042Z,19.84
2022-07-29T01:02:15.544Z,19.86
2022-07-29T01:04:45.064Z,19.82
2022-07-29T01:07:17.711Z,19.82
2022-07-29T01:09:48.461Z,19.82
2022-07-29T01:12:21.971Z,19.80
2022-07-29T01:14:52.947Z,19.84
2022-07-29T01:17:30.820Z,19.78
2022-07-29T01:20:20.343Z,19.51
2022-07-29T01:23:12.192Z,19.12
2022-07-29T01:25:59.554Z,18.90
2022-07-29T01:28:47.032Z,18.62
2022-07-29T01:31:25.391Z,18.32
2022-07-29T01:34:02.445Z,18.06
2022-07-29T01:36:41.612Z,17.94
2022-07-29T01:39:36.224Z,17.88
2022-07-29T01:42:16.385Z,17.77
2022-07-29T01:44:54.288Z,17.66
2022-07-29T01:47:29.280Z,17.53
2022-07-29T01:50:02.002Z,17.50
2022-07-29T01:52:50.715Z,17.51
2022-07-29T01:55:23.620Z,17.52
2022-07-29T01:57:53.431Z,17.46
2022-07-29T02:00:24.051Z,17.39
2022-07-29T02:02:57.740Z,17.36
2022-07-29T02:05:30.106Z,17.43
2022-07-29T02:08:02.196Z,17.31
2022-07-29T02:10:35.019Z,17.22
2022-07-29T02:13:06.713Z,17.19
2022-07-29T02:15:38.156Z,17.17
2022-07-29T02:18:15.512Z,17.24
2022-07-29T02:20:49.702Z,17.27
2022-07-29T02:23:25.015Z,17.24
2022-07-29T02:26:00.635Z,17.12
2022-07-29T02:28:32.328Z,17.11
2022-07-29T02:31:04.484Z,17.07
2022-07-29T02:33:35.267Z,16.97
2022-07-29T02:36:05.630Z,16.90
2022-07-29T02:38:48.219Z,16.75
2022-07-29T02:41:41.754Z,16.70
2022-07-29T02:44:18.162Z,16.65
2022-07-29T02:46:55.679Z,16.50
2022-07-29T02:49:25.131Z,16.38
2022-07-29T02:52:12.433Z,16.27
2022-07-29T02:54:55.343Z,16.19
2022-07-29T02:57:35.611Z,16.13
2022-07-29T03:00:25.705Z,16.12
2022-07-29T03:02:58.672Z,16.13
2022-07-29T03:05:28.226Z,16.12
2022-07-29T03:08:09.470Z,16.05
2022-07-29T03:10:43.425Z,15.97
2022-07-29T03:13:14.160Z,15.96
2022-07-29T03:15:45.950Z,15.95
2022-07-29T03:18:16.050Z,15.95
2022-07-29T03:20:45.883Z,15.91
2022-07-29T03:23:15.253Z,15.94
2022-07-29T03:25:44.567Z,15.88
2022-07-29T03:28:13.895Z,15.87
2022-07-29T03:30:45.707Z,15.89
2022-07-29T03:33:15.717Z,15.85
2022-07-29T03:35:45.144Z,15.90
2022-07-29T03:38:16.807Z,15.92
2022-07-29T03:40:56.721Z,15.88
2022-07-29T03:43:28.629Z,15.81
2022-07-29T03:45:58.958Z,15.86
2022-07-29T03:48:30.407Z,15.82
2022-07-29T03:51:00.267Z,15.68
2022-07-29T03:53:29.660Z,15.73
2022-07-29T03:56:03.336Z,15.74
2022-07-29T03:58:35.120Z,15.72
2022-07-29T04:01:04.700Z,15.78
2022-07-29T04:03:34.204Z,15.80
2022-07-29T04:06:06.891Z,15.82
2022-07-29T04:08:37.783Z,15.84
2022-07-29T04:11:08.171Z,15.91
2022-07-29T04:13:37.605Z,15.96
2022-07-29T04:16:07.294Z,16.02
2022-07-29T04:18:36.710Z,16.12
2022-07-29T04:21:06.519Z,16.04
2022-07-29T04:23:36.070Z,16.06
2022-07-29T04:26:23.691Z,16.05
2022-07-29T04:28:52.960Z,16.06
2022-07-29T04:31:25.762Z,16.09
2022-07-29T04:33:55.348Z,16.09
2022-07-29T04:36:28.863Z,16.09
2022-07-29T04:38:59.057Z,16.09
2022-07-29T04:41:32.995Z,16.11
2022-07-29T04:44:07.103Z,16.16
2022-07-29T04:46:41.865Z,16.19
2022-07-29T04:49:14.225Z,16.18
2022-07-29T04:51:43.602Z,16.24
2022-07-29T04:54:13.124Z,16.31
2022-07-29T04:56:42.782Z,16.31
2022-07-29T04:59:12.607Z,16.25
2022-07-29T05:01:42.748Z,16.19
2022-07-29T05:04:12.355Z,16.17
2022-07-29T05:06:41.868Z,16.11
2022-07-29T05:09:13.849Z,16.09
2022-07-29T05:11:43.181Z,16.03
2022-07-29T05:14:12.692Z,15.98
2022-07-29T05:16:43.030Z,15.96
2022-07-29T05:19:14.579Z,15.91
2022-07-29T05:21:44.608Z,15.99
2022-07-29T05:24:14.851Z,15.97
2022-07-29T05:26:45.577Z,16.03
2022-07-29T05:29:43.736Z,16.12
2022-07-29T05:32:04.418Z,16.12
2022-07-29T05:34:34.238Z,16.15
2022-07-29T05:37:03.780Z,16.10
2022-07-29T05:39:47.300Z,16.16
2022-07-29T05:42:19.831Z,16.25
2022-07-29T05:44:49.180Z,16.37
2022-07-29T05:47:18.586Z,16.47
2022-07-29T05:49:47.945Z,16.44
2022-07-29T05:52:20.105Z,16.41
2022-07-29T05:54:49.449Z,16.46
2022-07-29T05:57:23.005Z,16.42
2022-07-29T05:59:53.408Z,16.46
2022-07-29T06:02:23.052Z,16.56
2022-07-29T06:04:52.661Z,16.53
2022-07-29T06:07:22.075Z,16.49
2022-07-29T06:09:51.513Z,16.48
2022-07-29T06:12:20.919Z,16.45
2022-07-29T06:14:54.101Z,16.38
2022-07-29T06:17:23.663Z,16.28
2022-07-29T06:19:53.056Z,16.25
2022-07-29T06:22:22.469Z,16.28
2022-07-29T06:24:51.933Z,16.35
2022-07-29T06:27:21.333Z,16.43
2022-07-29T06:29:50.615Z,16.49
2022-07-29T06:32:20.172Z,16.49
2022-07-29T06:34:52.235Z,16.55
2022-07-29T06:37:23.135Z,16.68
2022-07-29T06:40:14.828Z,16.62
2022-07-29T06:42:47.564Z,16.61
2022-07-29T06:45:17.175Z,16.62
2022-07-29T06:47:46.560Z,16.71
2022-07-29T06:50:16.120Z,16.71
2022-07-29T06:52:45.529Z,16.68
2022-07-29T06:55:25.156Z,16.70
2022-07-29T06:57:55.080Z,16.59
2022-07-29T07:00:24.469Z,16.45
2022-07-29T07:02:53.978Z,16.49
2022-07-29T07:05:23.422Z,16.51
2022-07-29T07:07:55.319Z,16.58
2022-07-29T07:10:24.704Z,16.63
2022-07-29T07:12:54.137Z,16.59
2022-07-29T07:15:38.517Z,16.55
2022-07-29T07:18:09.866Z,16.55
2022-07-29T07:20:42.280Z,16.58
2022-07-29T07:23:12.159Z,16.59
2022-07-29T07:25:43.849Z,16.64
2022-07-29T07:28:14.607Z,16.58
2022-07-29T07:30:44.586Z,16.58
2022-07-29T07:33:13.922Z,16.62
2022-07-29T07:35:43.525Z,16.74
2022-07-29T07:38:12.824Z,16.68
2022-07-29T07:40:42.423Z,16.67
2022-07-29T07:43:11.803Z,16.72
2022-07-29T07:45:41.243Z,16.84
2022-07-29T07:48:11.236Z,16.87
2022-07-29T07:50:40.924Z,16.90
2022-07-29T07:53:10.475Z,16.97
2022-07-29T07:56:09.387Z,16.95
2022-07-29T07:58:37.268Z,16.94
2022-07-29T08:01:07.386Z,16.82
2022-07-29T08:03:37.004Z,16.77
2022-07-29T08:06:07.583Z,16.88
2022-07-29T08:08:37.106Z,16.91
2022-07-29T08:11:09.672Z,16.96
2022-07-29T08:13:42.849Z,16.97
2022-07-29T08:16:16.614Z,16.98
2022-07-29T08:18:47.301Z,17.07
2022-07-29T08:21:18.674Z,17.28
2022-07-29T08:23:59.792Z,17.54
2022-07-29T08:26:31.222Z,17.83
2022-07-29T08:29:00.542Z,18.02
2022-07-29T08:31:29.871Z,18.20
2022-07-29T08:34:00.860Z,18.34
2022-07-29T08:36:30.249Z,18.43
2022-07-29T08:38:59.938Z,18.53
2022-07-29T08:41:29.762Z,18.65
2022-07-29T08:43:59.208Z,18.70
2022-07-29T08:46:28.527Z,18.77
2022-07-29T08:48:59.104Z,18.79
2022-07-29T08:51:29.233Z,18.73
2022-07-29T08:53:58.928Z,18.71
2022-07-29T08:56:28.269Z,18.78
2022-07-29T08:58:58.400Z,18.75
2022-07-29T09:01:35.827Z,18.89
2022-07-29T09:04:09.174Z,18.91
2022-07-29T09:06:42.959Z,18.82
2022-07-29T09:09:12.948Z,18.84
2022-07-29T09:11:47.947Z,18.97
2022-07-29T09:14:17.539Z,18.92
2022-07-29T09:17:01.394Z,19.10
2022-07-29T09:19:35.253Z,19.28
2022-07-29T09:22:07.612Z,19.45
2022-07-29T09:24:48.503Z,19.65
2022-07-29T09:27:20.975Z,19.83
2022-07-29T09:29:51.140Z,19.85
2022-07-29T09:32:20.932Z,19.87
2022-07-29T09:34:50.269Z,19.91
2022-07-29T09:37:32.696Z,19.99
2022-07-29T09:40:01.979Z,20.01
2022-07-29T09:42:34.914Z,20.09
2022-07-29T09:45:04.331Z,20.10
2022-07-29T09:47:50.271Z,20.24
2022-07-29T09:50:24.598Z,20.54
2022-07-29T09:52:56.000Z,20.77
2022-07-29T09:55:25.459Z,20.98
2022-07-29T09:57:55.424Z,21.29
2022-07-29T10:00:26.449Z,21.52
2022-07-29T10:03:03.844Z,21.46
2022-07-29T10:05:36.485Z,21.52
2022-07-29T10:08:06.927Z,21.68
2022-07-29T10:10:42.462Z,21.81
2022-07-29T10:13:17.002Z,22.05
2022-07-29T10:15:51.902Z,22.15
2022-07-29T10:18:21.542Z,22.41
2022-07-29T10:20:51.931Z,22.68
2022-07-29T10:23:21.393Z,22.83
2022-07-29T10:25:50.802Z,22.75
2022-07-29T10:28:20.171Z,22.80
2022-07-29T10:30:53.440Z,22.98
2022-07-29T10:33:37.856Z,22.90
2022-07-29T10:36:19.398Z,22.77
2022-07-29T10:39:22.357Z,22.64
2022-07-29T10:42:17.051Z,22.92
2022-07-29T10:44:50.512Z,23.22
2022-07-29T10:47:27.690Z,23.41
2022-07-29T10:50:06.117Z,23.68
2022-07-29T10:52:53.672Z,23.82
2022-07-29T10:55:45.651Z,23.84
2022-07-29T10:58:25.301Z,23.90
2022-07-29T11:00:57.651Z,23.83
2022-07-29T11:03:57.160Z,23.89
2022-07-29T11:06:28.081Z,23.94
2022-07-29T11:09:34.990Z,24.07
2022-07-29T11:12:07.182Z,24.14
2022-07-29T11:14:57.356Z,24.32
2022-07-29T11:17:27.527Z,24.52
2022-07-29T11:20:42.861Z,24.76
2022-07-29T11:23:27.977Z,25.04
2022-07-29T11:26:18.885Z,24.88
2022-07-29T11:28:55.737Z,24.88
2022-07-29T11:31:55.856Z,25.04
2022-07-29T11:34:34.780Z,25.29
2022-07-29T11:37:13.738Z,25.46
2022-07-29T11:39:50.915Z,25.59
2022-07-29T11:42:32.435Z,25.70
2022-07-29T11:45:41.150Z,25.72
2022-07-29T11:48:28.431Z,25.58
2022-07-29T11:50:51.850Z,25.73
2022-07-29T11:53:21.262Z,25.87
2022-07-29T11:55:58.625Z,26.07
2022-07-29T11:58:28.457Z,26.21
2022-07-29T12:00:58.542Z,26.30
2022-07-29T12:03:36.855Z,26.34
2022-07-29T12:06:17.439Z,26.44
2022-07-29T12:08:48.412Z,26.38
2022-07-29T12:11:24.715Z,26.44
2022-07-29T12:13:55.311Z,26.45
2022-07-29T12:16:29.364Z,26.36
2022-07-29T12:19:04.163Z,26.42
2022-07-29T12:21:59.365Z,26.51
2022-07-29T12:24:29.919Z,26.64
2022-07-29T12:27:02.685Z,26.82
2022-07-29T12:29:33.808Z,26.94
2022-07-29T12:32:14.845Z,27.15
2022-07-29T12:34:48.996Z,27.37
2022-07-29T12:37:18.591Z,27.44
2022-07-29T12:39:48.094Z,27.42
2022-07-29T12:42:19.244Z,27.62
2022-07-29T12:44:50.381Z,27.86
2022-07-29T12:47:21.811Z,27.96
2022-07-29T12:49:52.463Z,28.08
2022-07-29T12:52:34.474Z,28.23
2022-07-29T12:55:04.617Z,28.40
2022-07-29T12:57:34.441Z,28.47
2022-07-29T13:00:13.671Z,28.54
2022-07-29T13:02:46.519Z,28.58
2022-07-29T13:05:17.275Z,28.70
2022-07-29T13:07:55.130Z,28.89
2022-07-29T13:10:27.186Z,29.05
2022-07-29T13:13:13.084Z,28.89
2022-07-29T13:15:45.238Z,28.72
2022-07-29T13:18:34.759Z,28.72
2022-07-29T13:21:18.955Z,28.72
2022-07-29T13:23:48.503Z,28.74
2022-07-29T13:26:29.678Z,28.91
2022-07-29T13:28:59.536Z,29.13
2022-07-29T13:31:29.051Z,29.30
2022-07-29T13:33:58.401Z,29.44
2022-07-29T13:36:27.834Z,29.50
2022-07-29T13:38:57.681Z,29.55
2022-07-29T13:41:27.054Z,29.64
2022-07-29T13:43:56.382Z,29.49
2022-07-29T13:46:25.775Z,29.30
2022-07-29T13:48:55.228Z,29.27
2022-07-29T13:51:24.808Z,29.40
2022-07-29T13:53:54.114Z,29.17
2022-07-29T13:56:23.435Z,28.83
2022-07-29T13:58:53.107Z,28.87
2022-07-29T14:01:22.504Z,28.99
2022-07-29T14:03:52.009Z,29.07
2022-07-29T14:06:22.319Z,28.91
2022-07-29T14:08:51.709Z,28.70
2022-07-29T14:11:21.116Z,28.78
2022-07-29T14:13:50.389Z,28.65
2022-07-29T14:16:19.814Z,28.59
2022-07-29T14:18:49.122Z,28.61
2022-07-29T14:21:18.463Z,28.58
2022-07-29T14:23:49.151Z,28.44
2022-07-29T14:26:21.402Z,28.52
2022-07-29T14:28:55.444Z,28.71
2022-07-29T14:31:24.878Z,28.50
2022-07-29T14:33:54.218Z,28.51
2022-07-29T14:36:23.688Z,28.46
2022-07-29T14:38:53.431Z,28.41
2022-07-29T14:41:22.771Z,28.52
2022-07-29T14:43:53.863Z,28.60
2022-07-29T14:46:23.326Z,28.60
2022-07-29T14:48:52.782Z,28.59
2022-07-29T14:51:22.432Z,28.61
2022-07-29T14:53:51.840Z,28.42
2022-07-29T14:56:36.493Z,28.40
2022-07-29T14:59:06.896Z,28.27
2022-07-29T15:01:36.348Z,28.33
2022-07-29T15:04:06.018Z,28.07
2022-07-29T15:06:35.412Z,28.12
2022-07-29T15:09:04.766Z,28.12
2022-07-29T15:11:37.015Z,28.08
2022-07-29T15:14:07.950Z,28.10
2022-07-29T15:16:41.994Z,28.14
2022-07-29T15:19:14.213Z,27.88
2022-07-29T15:21:48.386Z,27.76
2022-07-29T15:24:22.526Z,27.62
2022-07-29T15:26:51.887Z,27.49
2022-07-29T15:29:22.823Z,27.43
2022-07-29T15:31:52.511Z,27.43
2022-07-29T15:34:21.898Z,27.37
2022-07-29T15:36:52.831Z,27.36
2022-07-29T15:39:23.284Z,27.38
2022-07-29T15:41:53.507Z,27.51
2022-07-29T15:44:23.860Z,27.57
2022-07-29T15:47:08.963Z,27.63
2022-07-29T15:49:46.412Z,27.71
2022-07-29T15:52:16.323Z,27.68
2022-07-29T15:54:45.719Z,27.75
2022-07-29T15:57:15.310Z,27.78
2022-07-29T15:59:44.612Z,27.84
2022-07-29T16:02:13.895Z,27.96
2022-07-29T16:04:43.187Z,27.89
2022-07-29T16:07:12.532Z,27.86
2022-07-29T16:09:46.236Z,28.02
2022-07-29T16:12:24.128Z,28.01
2022-07-29T16:14:53.512Z,27.92
2022-07-29T16:17:22.948Z,27.96
2022-07-29T16:19:53.379Z,28.00
2022-07-29T16:22:22.665Z,27.94
2022-07-29T16:24:51.979Z,27.79
2022-07-29T16:27:27.061Z,27.83
2022-07-29T16:30:04.984Z,27.75
2022-07-29T16:32:34.663Z,27.69
2022-07-29T16:35:05.513Z,27.77
2022-07-29T16:37:37.221Z,27.71
2022-07-29T16:40:07.790Z,27.74
2022-07-29T16:42:47.011Z,27.85
2022-07-29T16:45:18.172Z,27.84
2022-07-29T16:47:50.884Z,27.81
2022-07-29T16:50:20.638Z,27.73
2022-07-29T16:52:49.970Z,27.79
2022-07-29T16:55:19.352Z,27.75
2022-07-29T16:57:48.651Z,27.65
2022-07-29T17:00:19.557Z,27.55
2022-07-29T17:02:49.078Z,27.56
2022-07-29T17:05:18.543Z,27.50
2022-07-29T17:07:48.426Z,27.33
2022-07-29T17:10:17.803Z,27.22
2022-07-29T17:12:47.863Z,27.09
2022-07-29T17:15:18.554Z,26.99
2022-07-29T17:17:55.174Z,26.91
2022-07-29T17:20:26.790Z,26.87
2022-07-29T17:22:56.923Z,26.89
2022-07-29T17:25:26.358Z,26.86
2022-07-29T17:28:00.522Z,26.83
2022-07-29T17:30:30.379Z,26.57
2022-07-29T17:32:59.776Z,26.47
2022-07-29T17:35:41.648Z,26.34
2022-07-29T17:38:11.061Z,26.32
2022-07-29T17:40:43.066Z,26.26
2022-07-29T17:43:12.339Z,26.29
2022-07-29T17:45:48.714Z,26.31
2022-07-29T17:48:20.843Z,26.30
2022-07-29T17:50:51.108Z,26.34
2022-07-29T17:53:20.491Z,26.35
2022-07-29T17:55:51.266Z,26.46
2022-07-29T17:58:20.684Z,26.43
2022-07-29T18:00:52.910Z,26.43
2022-07-29T18:03:22.993Z,26.49
2022-07-29T18:05:52.401Z,26.45
2022-07-29T18:08:22.297Z,26.45
2022-07-29T18:10:51.698Z,26.54
2022-07-29T18:13:21.681Z,26.51
2022-07-29T18:15:51.244Z,26.51
2022-07-29T18:18:20.988Z,26.51
2022-07-29T18:20:50.499Z,26.41
2022-07-29T18:23:19.827Z,26.33
2022-07-29T18:25:49.180Z,26.31
2022-07-29T18:28:18.679Z,26.28
2022-07-29T18:30:48.114Z,26.18
2022-07-29T18:33:21.822Z,26.08
2022-07-29T18:36:10.079Z,25.96
2022-07-29T18:38:42.306Z,25.86
2022-07-29T18:41:11.959Z,25.80
2022-07-29T18:43:41.976Z,25.64
2022-07-29T18:46:11.315Z,25.66
2022-07-29T18:48:42.198Z,25.64
2022-07-29T18:51:11.892Z,25.62
2022-07-29T18:53:41.230Z,25.51
2022-07-29T18:56:10.585Z,25.52
2022-07-29T18:58:39.902Z,25.44
2022-07-29T19:01:16.491Z,25.30
2022-07-29T19:03:46.198Z,25.27
2022-07-29T19:06:16.043Z,25.34
2022-07-29T19:08:45.535Z,25.21
2022-07-29T19:11:15.347Z,25.14
2022-07-29T19:13:44.700Z,25.00
2022-07-29T19:16:16.976Z,24.91
2022-07-29T19:18:47.405Z,24.90
2022-07-29T19:21:17.377Z,24.79
2022-07-29T19:24:00.684Z,24.73
2022-07-29T19:26:42.101Z,24.67
2022-07-29T19:29:13.349Z,24.67
2022-07-29T19:31:42.943Z,24.62
2022-07-29T19:34:12.555Z,24.52
2022-07-29T19:36:41.899Z,24.48
2022-07-29T19:39:11.758Z,24.41
2022-07-29T19:41:41.262Z,24.30
2022-07-29T19:44:14.313Z,24.24
2022-07-29T19:46:47.015Z,24.20
2022-07-29T19:49:16.555Z,24.16
2022-07-29T19:51:46.019Z,24.05
2022-07-29T19:54:15.640Z,23.97
2022-07-29T19:56:45.886Z,23.91
2022-07-29T19:59:15.536Z,23.84
2022-07-29T20:01:45.360Z,23.83
2022-07-29T20:04:14.757Z,23.75
2022-07-29T20:06:49.555Z,23.71
2022-07-29T20:09:20.784Z,23.64
2022-07-29T20:11:50.261Z,23.56
2022-07-29T20:14:19.671Z,23.43
2022-07-29T20:16:48.970Z,23.38
2022-07-29T20:19:18.971Z,23.32
2022-07-29T20:21:48.277Z,23.26
2022-07-29T20:24:17.623Z,23.20
2022-07-29T20:26:47.067Z,23.10
2022-07-29T20:29:16.539Z,23.04
2022-07-29T20:31:53.295Z,22.96
2022-07-29T20:34:25.689Z,22.89
2022-07-29T20:36:55.211Z,22.80
2022-07-29T20:39:25.635Z,22.73
2022-07-29T20:41:55.084Z,22.65
2022-07-29T20:44:24.472Z,22.58
2022-07-29T20:46:53.787Z,22.49
2022-07-29T20:49:23.200Z,22.43
2022-07-29T20:51:52.604Z,22.36
2022-07-29T20:54:22.006Z,22.28
2022-07-29T20:56:51.302Z,22.18
2022-07-29T20:59:20.621Z,22.13
2022-07-29T21:01:50.244Z,22.08
2022-07-29T21:04:19.771Z,22.06
2022-07-29T21:06:49.133Z,21.98
2022-07-29T21:09:18.621Z,21.89
2022-07-29T21:11:48.096Z,21.83
2022-07-29T21:14:27.946Z,21.76
2022-07-29T21:16:57.627Z,21.63
2022-07-29T21:19:27.196Z,21.63
2022-07-29T21:21:56.523Z,21.57
2022-07-29T21:24:25.980Z,21.55
2022-07-29T21:27:20.750Z,21.50
2022-07-29T21:29:48.928Z,21.41
2022-07-29T21:32:29.602Z,21.33
2022-07-29T21:35:00.855Z,21.26
2022-07-29T21:37:30.401Z,21.19
2022-07-29T21:40:00.124Z,21.17
2022-07-29T21:42:29.568Z,21.10
2022-07-29T21:44:58.908Z,21.07
2022-07-29T21:47:28.530Z,21.01
2022-07-29T21:49:58.030Z,20.95
2022-07-29T21:52:28.244Z,20.88
2022-07-29T21:54:58.302Z,20.83
2022-07-29T21:57:27.867Z,20.79
2022-07-29T22:00:02.167Z,20.77
2022-07-29T22:02:32.256Z,20.73
2022-07-29T22:05:01.624Z,20.69
2022-07-29T22:07:55.906Z,20.65
2022-07-29T22:10:20.523Z,20.57
2022-07-29T22:12:53.477Z,20.55
2022-07-29T22:15:23.087Z,20.48
2022-07-29T22:17:53.163Z,20.42
2022-07-29T22:20:23.396Z,20.38
2022-07-29T22:22:52.800Z,20.32
2022-07-29T22:25:22.678Z,20.29
2022-07-29T22:27:52.210Z,20.24
2022-07-29T22:30:21.762Z,20.19
2022-07-29T22:32:51.108Z,20.15
2022-07-29T22:35:20.563Z,20.10
2022-07-29T22:37:51.176Z,20.03
2022-07-29T22:40:20.481Z,19.95
2022-07-29T22:42:50.227Z,19.82
2022-07-29T22:45:19.786Z,19.75
2022-07-29T22:47:49.487Z,19.70
2022-07-29T22:50:20.207Z,19.65
2022-07-29T22:52:49.715Z,19.62
2022-07-29T22:55:19.092Z,19.58
2022-07-29T22:57:48.554Z,19.52
2022-07-29T23:00:18.458Z,19.49
2022-07-29T23:02:47.873Z,19.45
2022-07-29T23:05:18.102Z,19.41
2022-07-29T23:07:47.534Z,19.37
2022-07-29T23:10:16.943Z,19.33
2022-07-29T23:12:46.259Z,19.29
2022-07-29T23:15:15.800Z,19.23
2022-07-29T23:17:47.572Z,19.17
2022-07-29T23:20:16.905Z,19.14
2022-07-29T23:22:46.205Z,19.13
2022-07-29T23:25:15.608Z,19.10
2022-07-29T23:27:44.922Z,19.06
2022-07-29T23:30:16.840Z,19.02
2022-07-29T23:32:46.175Z,18.95
2022-07-29T23:35:15.490Z,18.93
2022-07-29T23:37:44.995Z,18.95
2022-07-29T23:40:15.071Z,18.96
2022-07-29T23:42:45.784Z,18.96
2022-07-29T23:45:16.312Z,18.94
2022-07-29T23:47:45.766Z,18.92
2022-07-29T23:50:16.842Z,18.90
2022-07-29T23:52:47.273Z,18.91
2022-07-29T23:55:36.685Z,18.86
2022-07-29T23:58:06.347Z,18.86
